ITT1034 LIKO-LIQL
Flight info
| Callsign | ITT1034 |
|---|---|
| Flight time | N/A |
| Altitude | 10000 |
| Route | BOA |
| Aircraft | C172/L-SFG/C |
Departure
| Time | 2026-04-27 19:57 |
|---|---|
| Airport | Guglielmo Zamboni Airfield (LIKO) |
Arrival
| Time | N/A |
|---|---|
| Airport | Lucca-Tassignano Airport (LIQL) |
| Time | Latitude | Longitude | Altitude | Speed | Heading |
|---|---|---|---|---|---|
| 2026-04-27 19:47 | 44.47622 | 11.54419 | 100 ft | 0 kts | 2° |
| 2026-04-27 19:54 | 44.47646 | 11.54413 | 99 ft | 4 kts | 289° |
| 2026-04-27 19:54 | 44.47635 | 11.54389 | 100 ft | 0 kts | 208° |
| 2026-04-27 19:55 | 44.47597 | 11.54360 | 100 ft | 25 kts | 210° |
| 2026-04-27 19:56 | 44.47302 | 11.54130 | 107 ft | 68 kts | 210° |
| 2026-04-27 19:56 | 44.46846 | 11.53723 | 230 ft | 81 kts | 210° |
| 2026-04-27 19:56 | 44.46335 | 11.53299 | 301 ft | 94 kts | 210° |
| 2026-04-27 19:56 | 44.45799 | 11.52852 | 454 ft | 95 kts | 209° |
| 2026-04-27 19:57 | 44.45209 | 11.52346 | 535 ft | 106 kts | 210° |
| 2026-04-27 19:57 | 44.44569 | 11.51769 | 661 ft | 110 kts | 211° |
| 2026-04-27 19:57 | 44.43922 | 11.51178 | 722 ft | 117 kts | 212° |
| 2026-04-27 19:57 | 44.43223 | 11.50586 | 805 ft | 119 kts | 205° |
| 2026-04-27 19:58 | 44.42489 | 11.50066 | 931 ft | 116 kts | 205° |
| 2026-04-27 19:58 | 44.41779 | 11.49542 | 1027 ft | 115 kts | 208° |
| 2026-04-27 19:58 | 44.41084 | 11.49053 | 1155 ft | 109 kts | 208° |
| 2026-04-27 19:58 | 44.40438 | 11.48580 | 1370 ft | 100 kts | 207° |
| 2026-04-27 19:59 | 44.39819 | 11.48172 | 1598 ft | 98 kts | 201° |
| 2026-04-27 19:59 | 44.39181 | 11.47833 | 1739 ft | 102 kts | 199° |
| 2026-04-27 19:59 | 44.38552 | 11.47418 | 1916 ft | 99 kts | 210° |
| 2026-04-27 19:59 | 44.37989 | 11.46881 | 2133 ft | 96 kts | 204° |
| 2026-04-27 20:00 | 44.37385 | 11.46503 | 2324 ft | 95 kts | 202° |
| 2026-04-27 20:00 | 44.36739 | 11.46099 | 2389 ft | 105 kts | 204° |
| 2026-04-27 20:00 | 44.36089 | 11.45630 | 2511 ft | 104 kts | 208° |
| 2026-04-27 20:00 | 44.35456 | 11.45169 | 2641 ft | 101 kts | 206° |
| 2026-04-27 20:01 | 44.34824 | 11.44698 | 2688 ft | 105 kts | 207° |
| 2026-04-27 20:01 | 44.34204 | 11.44222 | 2779 ft | 102 kts | 211° |
| 2026-04-27 20:01 | 44.33595 | 11.43704 | 2796 ft | 104 kts | 210° |
| 2026-04-27 20:01 | 44.32911 | 11.43181 | 2647 ft | 122 kts | 210° |
| 2026-04-27 20:02 | 44.32193 | 11.42676 | 2833 ft | 107 kts | 205° |
| 2026-04-27 20:02 | 44.31536 | 11.42197 | 2965 ft | 106 kts | 209° |
| 2026-04-27 20:02 | 44.30867 | 11.41721 | 3064 ft | 94 kts | 208° |
| 2026-04-27 20:02 | 44.30232 | 11.41229 | 2964 ft | 107 kts | 209° |
| 2026-04-27 20:03 | 44.29562 | 11.40696 | 2597 ft | 127 kts | 211° |
| 2026-04-27 20:03 | 44.28752 | 11.39992 | 2309 ft | 130 kts | 211° |
| 2026-04-27 20:03 | 44.28054 | 11.39353 | 2394 ft | 111 kts | 214° |
| 2026-04-27 20:03 | 44.27466 | 11.38738 | 2496 ft | 102 kts | 233° |
| 2026-04-27 20:04 | 44.27434 | 11.37808 | 2580 ft | 103 kts | 297° |
| 2026-04-27 20:04 | 44.28025 | 11.37251 | 2587 ft | 110 kts | 347° |
| 2026-04-27 20:04 | 44.28755 | 11.37369 | 2708 ft | 101 kts | 23° |
| 2026-04-27 20:04 | 44.29172 | 11.37695 | 2693 ft | 108 kts | 37° |
| 2026-04-27 20:05 | 44.29954 | 11.38526 | 2783 ft | 103 kts | 34° |
| 2026-04-27 20:05 | 44.30678 | 11.38882 | 2781 ft | 114 kts | 1° |
| 2026-04-27 20:05 | 44.31334 | 11.38517 | 2881 ft | 104 kts | 301° |
| 2026-04-27 20:05 | 44.31307 | 11.37601 | 2882 ft | 97 kts | 219° |
| 2026-04-27 20:06 | 44.30724 | 11.37813 | 2806 ft | 115 kts | 115° |
| 2026-04-27 20:06 | 44.31111 | 11.38726 | 2825 ft | 121 kts | 23° |
| 2026-04-27 20:06 | 44.31863 | 11.39164 | 2903 ft | 116 kts | 25° |
| 2026-04-27 20:06 | 44.32613 | 11.39641 | 2904 ft | 121 kts | 27° |
| 2026-04-27 20:07 | 44.33364 | 11.40133 | 2902 ft | 119 kts | 26° |
| 2026-04-27 20:07 | 44.34122 | 11.40643 | 2904 ft | 122 kts | 27° |
| 2026-04-27 20:07 | 44.34877 | 11.41170 | 2901 ft | 120 kts | 28° |
| 2026-04-27 20:07 | 44.35619 | 11.41702 | 2896 ft | 120 kts | 29° |
| 2026-04-27 20:08 | 44.36314 | 11.42315 | 2895 ft | 118 kts | 52° |
| 2026-04-27 20:08 | 44.36807 | 11.43200 | 2903 ft | 109 kts | 59° |
| 2026-04-27 20:08 | 44.36834 | 11.44167 | 2897 ft | 101 kts | 132° |
| 2026-04-27 20:08 | 44.36246 | 11.44396 | 2910 ft | 95 kts | 205° |
| 2026-04-27 20:09 | 44.35796 | 11.43680 | 2916 ft | 98 kts | 230° |
| 2026-04-27 20:09 | 44.35401 | 11.42942 | 2909 ft | 94 kts | 232° |
| 2026-04-27 20:09 | 44.34998 | 11.42198 | 2909 ft | 95 kts | 229° |
| 2026-04-27 20:09 | 44.34621 | 11.41445 | 2903 ft | 98 kts | 232° |
| 2026-04-27 20:10 | 44.34204 | 11.40674 | 2909 ft | 99 kts | 230° |
| 2026-04-27 20:10 | 44.33787 | 11.39888 | 2912 ft | 103 kts | 231° |
| 2026-04-27 20:10 | 44.33350 | 11.39075 | 2898 ft | 104 kts | 231° |
| 2026-04-27 20:10 | 44.32914 | 11.38269 | 2902 ft | 105 kts | 231° |
| 2026-04-27 20:11 | 44.32475 | 11.37447 | 2899 ft | 104 kts | 231° |
| 2026-04-27 20:11 | 44.32182 | 11.36911 | 2900 ft | 103 kts | 231° |
| 2026-04-27 20:11 | 44.31752 | 11.36107 | 2901 ft | 103 kts | 232° |
| 2026-04-27 20:11 | 44.31321 | 11.35314 | 2899 ft | 101 kts | 230° |
| 2026-04-27 20:12 | 44.30910 | 11.34534 | 2898 ft | 98 kts | 231° |
| 2026-04-27 20:12 | 44.30667 | 11.34089 | 2897 ft | 98 kts | 231° |
| 2026-04-27 20:12 | 44.30258 | 11.33329 | 2904 ft | 96 kts | 231° |
| 2026-04-27 20:12 | 44.29831 | 11.32569 | 2908 ft | 102 kts | 231° |
| 2026-04-27 20:13 | 44.29407 | 11.31797 | 3034 ft | 96 kts | 231° |
| 2026-04-27 20:13 | 44.29012 | 11.31094 | 3163 ft | 88 kts | 231° |
| 2026-04-27 20:13 | 44.28654 | 11.30456 | 3290 ft | 79 kts | 221° |
| 2026-04-27 20:13 | 44.28117 | 11.30329 | 3452 ft | 83 kts | 189° |
| 2026-04-27 20:14 | 44.27520 | 11.30281 | 3618 ft | 89 kts | 186° |
| 2026-04-27 20:14 | 44.26877 | 11.30237 | 3774 ft | 94 kts | 186° |
| 2026-04-27 20:14 | 44.26206 | 11.30190 | 3927 ft | 98 kts | 187° |
| 2026-04-27 20:14 | 44.25518 | 11.30154 | 4018 ft | 104 kts | 186° |
| 2026-04-27 20:15 | 44.24757 | 11.30097 | 4028 ft | 113 kts | 186° |
| 2026-04-27 20:15 | 44.23966 | 11.30039 | 4027 ft | 114 kts | 187° |
| 2026-04-27 20:15 | 44.23220 | 11.29763 | 4028 ft | 110 kts | 210° |
| 2026-04-27 20:15 | 44.22628 | 11.29111 | 4022 ft | 108 kts | 236° |
| 2026-04-27 20:16 | 44.22244 | 11.28232 | 4022 ft | 105 kts | 239° |
| 2026-04-27 20:16 | 44.21879 | 11.27349 | 4010 ft | 104 kts | 241° |
| 2026-04-27 20:16 | 44.21531 | 11.26478 | 4006 ft | 98 kts | 241° |
| 2026-04-27 20:16 | 44.21208 | 11.25645 | 4034 ft | 100 kts | 240° |
| 2026-04-27 20:17 | 44.20872 | 11.24775 | 4037 ft | 104 kts | 241° |
| 2026-04-27 20:17 | 44.20528 | 11.23879 | 4033 ft | 105 kts | 242° |
| 2026-04-27 20:17 | 44.20187 | 11.22990 | 4031 ft | 103 kts | 242° |
| 2026-04-27 20:17 | 44.19854 | 11.22110 | 4027 ft | 102 kts | 242° |
| 2026-04-27 20:18 | 44.19524 | 11.21227 | 4033 ft | 104 kts | 242° |
| 2026-04-27 20:18 | 44.19200 | 11.20317 | 4035 ft | 106 kts | 243° |
| 2026-04-27 20:18 | 44.18885 | 11.19398 | 4028 ft | 104 kts | 244° |
| 2026-04-27 20:18 | 44.18584 | 11.18482 | 4022 ft | 102 kts | 245° |
| 2026-04-27 20:19 | 44.18291 | 11.17569 | 4034 ft | 105 kts | 245° |
| 2026-04-27 20:19 | 44.17802 | 11.16849 | 4034 ft | 106 kts | 216° |
| 2026-04-27 20:19 | 44.17518 | 11.15939 | 4037 ft | 106 kts | 259° |
| 2026-04-27 20:19 | 44.17240 | 11.15014 | 4032 ft | 102 kts | 238° |
| 2026-04-27 20:20 | 44.16867 | 11.14181 | 4029 ft | 100 kts | 237° |
| 2026-04-27 20:20 | 44.16511 | 11.13330 | 4035 ft | 104 kts | 239° |
| 2026-04-27 20:20 | 44.16157 | 11.12450 | 4034 ft | 104 kts | 241° |
| 2026-04-27 20:20 | 44.15811 | 11.11565 | 4030 ft | 104 kts | 242° |
| 2026-04-27 20:21 | 44.15466 | 11.10673 | 4030 ft | 105 kts | 242° |
| 2026-04-27 20:21 | 44.15121 | 11.09778 | 4042 ft | 105 kts | 242° |
| 2026-04-27 20:21 | 44.14776 | 11.08881 | 4039 ft | 105 kts | 242° |
| 2026-04-27 20:21 | 44.14433 | 11.07989 | 4040 ft | 105 kts | 242° |
| 2026-04-27 20:22 | 44.14089 | 11.07097 | 4038 ft | 105 kts | 242° |
| 2026-04-27 20:22 | 44.13742 | 11.06193 | 4044 ft | 107 kts | 241° |
| 2026-04-27 20:22 | 44.13395 | 11.05288 | 4047 ft | 105 kts | 242° |
| 2026-04-27 20:22 | 44.13044 | 11.04387 | 4046 ft | 106 kts | 239° |
| 2026-04-27 20:23 | 44.12501 | 11.03717 | 4039 ft | 106 kts | 207° |
| 2026-04-27 20:23 | 44.11816 | 11.03356 | 4041 ft | 104 kts | 203° |
| 2026-04-27 20:23 | 44.11136 | 11.02997 | 4029 ft | 103 kts | 203° |
| 2026-04-27 20:23 | 44.10472 | 11.02648 | 4018 ft | 100 kts | 203° |
| 2026-04-27 20:24 | 44.09845 | 11.02318 | 4035 ft | 96 kts | 204° |
| 2026-04-27 20:24 | 44.09211 | 11.01988 | 4045 ft | 98 kts | 204° |
| 2026-04-27 20:24 | 44.08569 | 11.01647 | 4046 ft | 98 kts | 203° |
| 2026-04-27 20:24 | 44.07925 | 11.01302 | 4041 ft | 102 kts | 204° |
| 2026-04-27 20:25 | 44.07260 | 11.00953 | 4026 ft | 102 kts | 203° |
| 2026-04-27 20:25 | 44.06635 | 11.00628 | 4045 ft | 97 kts | 203° |
| 2026-04-27 20:25 | 44.05995 | 11.00288 | 4042 ft | 99 kts | 204° |
| 2026-04-27 20:25 | 44.05340 | 10.99941 | 4046 ft | 102 kts | 204° |
| 2026-04-27 20:26 | 44.04686 | 10.99603 | 4034 ft | 100 kts | 204° |
| 2026-04-27 20:26 | 44.04027 | 10.99251 | 4039 ft | 100 kts | 204° |
| 2026-04-27 20:26 | 44.03380 | 10.98911 | 4045 ft | 100 kts | 202° |
| 2026-04-27 20:26 | 44.03126 | 10.98767 | 4008 ft | 5 kts | 206° |
| 2026-04-27 20:27 | 44.03146 | 10.98767 | 3943 ft | 0 kts | 217° |